logo
Search for airport 
image banner adimage banner adimage banner ad
image banner ad

LKTA - Tabor

Located in Tabor, Czech Republic

ICAO - LKTA, IATA -

Data provided by Airmate  

General information

Coordinates: N49°23'28" E14°42'30"
Elevation is 1440 feet MSL.
 
View others Airports in South Bohemian Region

Operational data

Special qualification required
Current time UTC:
Current local time:
Weather at : LKCV - Caslav ( 78 km )
METAR: LKCV 171700Z 08007KT CAVOK 09/01 Q1006 NOSIG
TAF: TAF LKCV 171700Z 1718/1818 VRB02KT CAVOK PROB30 1802/1806 3000 MIFG BR BECMG 1806/1808 33008KT BKN028 PROB40 TEMPO 1809/1816 33016KT 7000 BKN024TCU BECMG 1812/1814 CAVOK
View NOTAMs / SUP AIP / TFR affecting this airport [VIEW]
Communications frequencies: [VIEW]

Runways:

RWY identifierQFULength (ft)Width (ft)SurfaceLDA (ft)
162789328GRASS
342789328GRASS
11360998GRASS
29360998GRASS

Airport contact information

Address: Tabor Czech Republic

Other aviation service providers

Aviation club (not for profit)

Aeroklub Tábor, O.S.

Aeroklub Tábor, O.S.
info@aktabor.cz+420381263264
+420606106422

Satellite view of LKTA